sensor_id;sensor_type;location;lat;lon;timestamp;pressure;altitude;pressure_sealevel;temperature;humidity
10366;BME280;5229;41.820;23.490;2022-12-18T00:02:05;90567.59;;;12.84;71.80
10366;BME280;5229;41.820;23.490;2022-12-18T00:04:33;90568.06;;;12.86;71.72
10366;BME280;5229;41.820;23.490;2022-12-18T00:07:00;90574.34;;;12.85;71.30
10366;BME280;5229;41.820;23.490;2022-12-18T00:09:27;90576.63;;;12.86;71.57
10366;BME280;5229;41.820;23.490;2022-12-18T00:11:54;90576.63;;;12.86;71.29
10366;BME280;5229;41.820;23.490;2022-12-18T00:14:20;90575.41;;;12.84;71.42
10366;BME280;5229;41.820;23.490;2022-12-18T00:16:47;90579.69;;;12.80;71.76
10366;BME280;5229;41.820;23.490;2022-12-18T00:19:14;90579.22;;;12.78;71.55
10366;BME280;5229;41.820;23.490;2022-12-18T00:21:43;90574.78;;;12.78;71.47
10366;BME280;5229;41.820;23.490;2022-12-18T00:24:11;90577.38;;;12.78;71.45
10366;BME280;5229;41.820;23.490;2022-12-18T00:26:38;90575.09;;;12.77;71.77
10366;BME280;5229;41.820;23.490;2022-12-18T00:29:07;90584.41;;;12.78;72.27
10366;BME280;5229;41.820;23.490;2022-12-18T00:31:34;90582.13;;;12.76;71.89
10366;BME280;5229;41.820;23.490;2022-12-18T00:34:02;90580.88;;;12.74;71.79
10366;BME280;5229;41.820;23.490;2022-12-18T00:36:30;90574.59;;;12.75;72.02
10366;BME280;5229;41.820;23.490;2022-12-18T00:39:00;90589.63;;;12.78;71.90
10366;BME280;5229;41.820;23.490;2022-12-18T00:41:27;90585.50;;;12.77;72.05
10366;BME280;5229;41.820;23.490;2022-12-18T00:44:13;90592.38;;;12.73;71.67
10366;BME280;5229;41.820;23.490;2022-12-18T00:46:41;90583.16;;;12.67;71.99
10366;BME280;5229;41.820;23.490;2022-12-18T00:49:08;90578.56;;;12.64;71.98
10366;BME280;5229;41.820;23.490;2022-12-18T00:51:34;90588.50;;;12.62;72.34
10366;BME280;5229;41.820;23.490;2022-12-18T00:54:02;90591.09;;;12.62;71.75
10366;BME280;5229;41.820;23.490;2022-12-18T00:56:30;90593.22;;;12.60;72.17
10366;BME280;5229;41.820;23.490;2022-12-18T00:58:57;90598.44;;;12.60;71.61
10366;BME280;5229;41.820;23.490;2022-12-18T01:01:23;90593.81;;;12.57;72.08
10366;BME280;5229;41.820;23.490;2022-12-18T01:03:50;90587.88;;;12.56;71.44
10366;BME280;5229;41.820;23.490;2022-12-18T01:06:17;90591.22;;;12.57;71.84
10366;BME280;5229;41.820;23.490;2022-12-18T01:08:44;90587.09;;;12.56;71.47
10366;BME280;5229;41.820;23.490;2022-12-18T01:11:14;90590.94;;;12.58;71.59
10366;BME280;5229;41.820;23.490;2022-12-18T01:13:41;90593.81;;;12.57;71.13
10366;BME280;5229;41.820;23.490;2022-12-18T01:16:11;90588.63;;;12.57;71.91
10366;BME280;5229;41.820;23.490;2022-12-18T01:18:38;90589.69;;;12.56;71.64
10366;BME280;5229;41.820;23.490;2022-12-18T01:21:06;90592.31;;;12.56;71.38
10366;BME280;5229;41.820;23.490;2022-12-18T01:23:33;90599.03;;;12.57;71.23
10366;BME280;5229;41.820;23.490;2022-12-18T01:26:04;90592.31;;;12.56;71.59
10366;BME280;5229;41.820;23.490;2022-12-18T01:28:33;90595.97;;;12.55;71.17
10366;BME280;5229;41.820;23.490;2022-12-18T01:31:10;90608.50;;;12.53;71.29
10366;BME280;5229;41.820;23.490;2022-12-18T01:33:37;90598.56;;;12.55;71.46
10366;BME280;5229;41.820;23.490;2022-12-18T01:36:04;90605.31;;;12.56;71.39
10366;BME280;5229;41.820;23.490;2022-12-18T01:38:31;90611.59;;;12.55;70.91
10366;BME280;5229;41.820;23.490;2022-12-18T01:40:58;90613.25;;;12.51;70.83
10366;BME280;5229;41.820;23.490;2022-12-18T01:43:48;90615.50;;;12.44;71.00
10366;BME280;5229;41.820;23.490;2022-12-18T01:46:15;90612.44;;;12.42;71.81
10366;BME280;5229;41.820;23.490;2022-12-18T01:48:44;90613.81;;;12.39;71.61
10366;BME280;5229;41.820;23.490;2022-12-18T01:51:12;90615.19;;;12.37;71.08
10366;BME280;5229;41.820;23.490;2022-12-18T01:53:40;90614.22;;;12.33;71.31
10366;BME280;5229;41.820;23.490;2022-12-18T01:56:08;90609.00;;;12.33;70.86
10366;BME280;5229;41.820;23.490;2022-12-18T01:58:44;90613.16;;;12.34;71.01
10366;BME280;5229;41.820;23.490;2022-12-18T02:01:14;90620.19;;;12.33;71.64
10366;BME280;5229;41.820;23.490;2022-12-18T02:03:42;90617.13;;;12.31;71.55
10366;BME280;5229;41.820;23.490;2022-12-18T02:06:14;90614.84;;;12.30;71.27
10366;BME280;5229;41.820;23.490;2022-12-18T02:08:48;90619.75;;;12.31;70.72
10366;BME280;5229;41.820;23.490;2022-12-18T02:11:24;90628.13;;;12.28;71.13
10366;BME280;5229;41.820;23.490;2022-12-18T02:14:00;90618.91;;;12.22;70.67
10366;BME280;5229;41.820;23.490;2022-12-18T02:16:36;90625.13;;;12.13;70.88
10366;BME280;5229;41.820;23.490;2022-12-18T02:19:15;90623.34;;;12.00;71.53
10366;BME280;5229;41.820;23.490;2022-12-18T02:21:55;90620.97;;;11.89;71.38
10366;BME280;5229;41.820;23.490;2022-12-18T02:24:29;90613.13;;;11.81;71.46
10366;BME280;5229;41.820;23.490;2022-12-18T02:27:02;90612.97;;;11.77;70.81
10366;BME280;5229;41.820;23.490;2022-12-18T02:29:34;90622.22;;;11.70;71.26
10366;BME280;5229;41.820;23.490;2022-12-18T02:32:06;90616.94;;;11.61;71.50
10366;BME280;5229;41.820;23.490;2022-12-18T02:34:38;90627.44;;;11.56;71.94
10366;BME280;5229;41.820;23.490;2022-12-18T02:37:07;90634.75;;;11.54;71.89
10366;BME280;5229;41.820;23.490;2022-12-18T02:39:39;90628.97;;;11.57;71.64
10366;BME280;5229;41.820;23.490;2022-12-18T02:42:09;90626.84;;;11.59;71.54
10366;BME280;5229;41.820;23.490;2022-12-18T02:44:42;90623.72;;;11.62;72.40
10366;BME280;5229;41.820;23.490;2022-12-18T02:47:10;90622.50;;;11.68;71.75
10366;BME280;5229;41.820;23.490;2022-12-18T02:49:47;90625.09;;;11.68;71.85
10366;BME280;5229;41.820;23.490;2022-12-18T02:52:22;90615.97;;;11.71;71.58
10366;BME280;5229;41.820;23.490;2022-12-18T02:55:00;90623.44;;;11.72;71.92
10366;BME280;5229;41.820;23.490;2022-12-18T02:57:39;90622.72;;;11.72;71.39
10366;BME280;5229;41.820;23.490;2022-12-18T03:00:10;90624.53;;;11.71;71.75
10366;BME280;5229;41.820;23.490;2022-12-18T03:02:41;90622.72;;;11.72;71.03
10366;BME280;5229;41.820;23.490;2022-12-18T03:05:14;90632.81;;;11.73;71.75
10366;BME280;5229;41.820;23.490;2022-12-18T03:07:46;90632.50;;;11.75;70.67
10366;BME280;5229;41.820;23.490;2022-12-18T03:10:19;90638.94;;;11.77;70.76
10366;BME280;5229;41.820;23.490;2022-12-18T03:12:54;90634.19;;;11.79;70.46
10366;BME280;5229;41.820;23.490;2022-12-18T03:15:28;90633.91;;;11.81;69.73
10366;BME280;5229;41.820;23.490;2022-12-18T03:17:59;90631.31;;;11.81;70.69
10366;BME280;5229;41.820;23.490;2022-12-18T03:20:29;90635.75;;;11.80;70.60
10366;BME280;5229;41.820;23.490;2022-12-18T03:23:00;90642.78;;;11.80;69.91
10366;BME280;5229;41.820;23.490;2022-12-18T03:25:30;90642.41;;;11.73;69.92
10366;BME280;5229;41.820;23.490;2022-12-18T03:28:00;90649.28;;;11.69;70.02
10366;BME280;5229;41.820;23.490;2022-12-18T03:30:30;90648.59;;;11.63;70.32
10366;BME280;5229;41.820;23.490;2022-12-18T03:33:05;90650.72;;;11.61;69.17
10366;BME280;5229;41.820;23.490;2022-12-18T03:35:37;90659.84;;;11.59;70.30
10366;BME280;5229;41.820;23.490;2022-12-18T03:38:05;90656.50;;;11.58;69.93
10366;BME280;5229;41.820;23.490;2022-12-18T03:40:38;90653.41;;;11.56;70.96
10366;BME280;5229;41.820;23.490;2022-12-18T03:43:11;90664.56;;;11.57;70.78
10366;BME280;5229;41.820;23.490;2022-12-18T03:45:49;90666.19;;;11.53;70.61
10366;BME280;5229;41.820;23.490;2022-12-18T03:48:23;90672.28;;;11.48;69.40
10366;BME280;5229;41.820;23.490;2022-12-18T03:50:57;90674.41;;;11.46;69.92
10366;BME280;5229;41.820;23.490;2022-12-18T03:53:32;90675.47;;;11.45;69.87
10366;BME280;5229;41.820;23.490;2022-12-18T03:56:04;90672.38;;;11.43;69.97
10366;BME280;5229;41.820;23.490;2022-12-18T03:58:34;90674.50;;;11.41;70.35
10366;BME280;5229;41.820;23.490;2022-12-18T04:01:05;90671.91;;;11.41;71.11
10366;BME280;5229;41.820;23.490;2022-12-18T04:03:35;90671.91;;;11.41;70.77
10366;BME280;5229;41.820;23.490;2022-12-18T04:06:03;90683.84;;;11.42;70.17
10366;BME280;5229;41.820;23.490;2022-12-18T04:08:32;90687.50;;;11.41;70.55
10366;BME280;5229;41.820;23.490;2022-12-18T04:11:00;90687.78;;;11.40;70.96
10366;BME280;5229;41.820;23.490;2022-12-18T04:13:30;90682.31;;;11.41;70.14
10366;BME280;5229;41.820;23.490;2022-12-18T04:16:00;90683.84;;;11.42;70.31
10366;BME280;5229;41.820;23.490;2022-12-18T04:18:27;90687.97;;;11.43;69.79
10366;BME280;5229;41.820;23.490;2022-12-18T04:20:53;90688.44;;;11.45;69.71
10366;BME280;5229;41.820;23.490;2022-12-18T04:23:20;90687.09;;;11.48;70.09
10366;BME280;5229;41.820;23.490;2022-12-18T04:25:47;90689.41;;;11.49;70.58
10366;BME280;5229;41.820;23.490;2022-12-18T04:28:14;90694.59;;;11.49;69.33
10366;BME280;5229;41.820;23.490;2022-12-18T04:30:40;90700.28;;;11.51;70.03
10366;BME280;5229;41.820;23.490;2022-12-18T04:33:10;90697.06;;;11.54;69.71
10366;BME280;5229;41.820;23.490;2022-12-18T04:35:36;90695.47;;;11.58;69.56
10366;BME280;5229;41.820;23.490;2022-12-18T04:38:03;90694.59;;;11.63;70.37
10366;BME280;5229;41.820;23.490;2022-12-18T04:40:31;90697.09;;;11.68;70.12
10366;BME280;5229;41.820;23.490;2022-12-18T04:42:58;90705.63;;;11.68;69.77
10366;BME280;5229;41.820;23.490;2022-12-18T04:45:25;90707.66;;;11.71;69.29
10366;BME280;5229;41.820;23.490;2022-12-18T04:47:52;90702.00;;;11.69;70.24
10366;BME280;5229;41.820;23.490;2022-12-18T04:50:20;90708.53;;;11.67;70.07
10366;BME280;5229;41.820;23.490;2022-12-18T04:52:46;90709.78;;;11.69;69.99
10366;BME280;5229;41.820;23.490;2022-12-18T04:55:13;90713.63;;;11.72;69.80
10366;BME280;5229;41.820;23.490;2022-12-18T04:57:40;90710.75;;;11.73;70.31
10366;BME280;5229;41.820;23.490;2022-12-18T05:00:08;90711.03;;;11.72;69.88
10366;BME280;5229;41.820;23.490;2022-12-18T05:02:35;90709.78;;;11.69;69.91
10366;BME280;5229;41.820;23.490;2022-12-18T05:05:02;90708.53;;;11.67;69.84
10366;BME280;5229;41.820;23.490;2022-12-18T05:07:30;90720.00;;;11.66;70.70
10366;BME280;5229;41.820;23.490;2022-12-18T05:09:57;90722.88;;;11.64;70.08
10366;BME280;5229;41.820;23.490;2022-12-18T05:12:24;90725.00;;;11.62;69.64
10366;BME280;5229;41.820;23.490;2022-12-18T05:14:50;90723.94;;;11.63;69.80
10366;BME280;5229;41.820;23.490;2022-12-18T05:17:17;90730.19;;;11.62;70.19
10366;BME280;5229;41.820;23.490;2022-12-18T05:19:44;90729.13;;;11.63;70.98
10366;BME280;5229;41.820;23.490;2022-12-18T05:22:11;90736.94;;;11.63;70.46
10366;BME280;5229;41.820;23.490;2022-12-18T05:24:39;90732.69;;;11.67;70.87
10366;BME280;5229;41.820;23.490;2022-12-18T05:27:06;90737.09;;;11.67;70.08
10366;BME280;5229;41.820;23.490;2022-12-18T05:29:33;90735.09;;;11.64;70.75
10366;BME280;5229;41.820;23.490;2022-12-18T05:32:00;90736.81;;;11.68;70.22
10366;BME280;5229;41.820;23.490;2022-12-18T05:34:26;90736.81;;;11.68;70.21
10366;BME280;5229;41.820;23.490;2022-12-18T05:36:53;90731.72;;;11.63;70.93
10366;BME280;5229;41.820;23.490;2022-12-18T05:39:20;90743.66;;;11.64;71.17
10366;BME280;5229;41.820;23.490;2022-12-18T05:41:48;90736.06;;;11.68;71.08
10366;BME280;5229;41.820;23.490;2022-12-18T05:44:15;90744.03;;;11.71;70.97
10366;BME280;5229;41.820;23.490;2022-12-18T05:46:42;90740.34;;;11.72;70.67
10366;BME280;5229;41.820;23.490;2022-12-18T05:49:08;90758.25;;;11.74;70.50
10366;BME280;5229;41.820;23.490;2022-12-18T05:51:35;90753.84;;;11.74;70.81
10366;BME280;5229;41.820;23.490;2022-12-18T05:54:02;90763.06;;;11.80;70.97
10366;BME280;5229;41.820;23.490;2022-12-18T05:56:29;90757.31;;;11.83;70.43
10366;BME280;5229;41.820;23.490;2022-12-18T05:58:57;90759.28;;;11.86;70.98
10366;BME280;5229;41.820;23.490;2022-12-18T06:01:26;90766.81;;;11.88;70.96
10366;BME280;5229;41.820;23.490;2022-12-18T06:03:53;90770.66;;;11.91;70.37
10366;BME280;5229;41.820;23.490;2022-12-18T06:06:21;90769.88;;;11.90;71.37
10366;BME280;5229;41.820;23.490;2022-12-18T06:08:49;90770.66;;;11.91;71.41
10366;BME280;5229;41.820;23.490;2022-12-18T06:11:17;90777.69;;;11.90;71.44
10366;BME280;5229;41.820;23.490;2022-12-18T06:13:45;90776.31;;;11.93;70.83
10366;BME280;5229;41.820;23.490;2022-12-18T06:16:13;90785.84;;;11.97;70.14
10366;BME280;5229;41.820;23.490;2022-12-18T06:18:40;90777.47;;;12.00;70.09
10366;BME280;5229;41.820;23.490;2022-12-18T06:21:06;90785.16;;;12.05;71.17
10366;BME280;5229;41.820;23.490;2022-12-18T06:23:33;90791.31;;;12.09;71.05
10366;BME280;5229;41.820;23.490;2022-12-18T06:26:04;90791.50;;;12.13;70.06
10366;BME280;5229;41.820;23.490;2022-12-18T06:28:31;90787.38;;;12.12;70.33
10366;BME280;5229;41.820;23.490;2022-12-18T06:30:58;90793.31;;;12.12;70.33
10366;BME280;5229;41.820;23.490;2022-12-18T06:33:27;90795.19;;;12.12;70.61
10366;BME280;5229;41.820;23.490;2022-12-18T06:35:54;90797.28;;;12.10;70.12
10366;BME280;5229;41.820;23.490;2022-12-18T06:38:25;90800.94;;;12.09;71.08
10366;BME280;5229;41.820;23.490;2022-12-18T06:40:52;90798.06;;;12.10;70.60
10366;BME280;5229;41.820;23.490;2022-12-18T06:43:18;90800.38;;;12.12;70.12
10366;BME280;5229;41.820;23.490;2022-12-18T06:45:45;90808.63;;;12.14;69.76
10366;BME280;5229;41.820;23.490;2022-12-18T06:48:17;90807.84;;;12.13;70.34
10366;BME280;5229;41.820;23.490;2022-12-18T06:50:46;90808.16;;;12.12;69.71
10366;BME280;5229;41.820;23.490;2022-12-18T06:53:13;90815.00;;;12.08;70.05
10366;BME280;5229;41.820;23.490;2022-12-18T06:55:39;90826.94;;;12.09;69.97
10366;BME280;5229;41.820;23.490;2022-12-18T06:58:07;90821.34;;;12.15;69.50
10366;BME280;5229;41.820;23.490;2022-12-18T07:00:34;90824.59;;;12.21;69.85
10366;BME280;5229;41.820;23.490;2022-12-18T07:03:01;90824.31;;;12.22;69.03
10366;BME280;5229;41.820;23.490;2022-12-18T07:05:29;90830.00;;;12.24;69.58
10366;BME280;5229;41.820;23.490;2022-12-18T07:07:58;90828.66;;;12.27;68.83
10366;BME280;5229;41.820;23.490;2022-12-18T07:10:25;90827.94;;;12.35;69.89
10366;BME280;5229;41.820;23.490;2022-12-18T07:12:51;90829.84;;;12.43;69.19
10366;BME280;5229;41.820;23.490;2022-12-18T07:15:18;90843.22;;;12.50;68.77
10366;BME280;5229;41.820;23.490;2022-12-18T07:17:45;90837.13;;;12.54;68.64
10366;BME280;5229;41.820;23.490;2022-12-18T07:20:12;90841.47;;;12.59;68.38
10366;BME280;5229;41.820;23.490;2022-12-18T07:22:38;90847.13;;;12.61;68.88
10366;BME280;5229;41.820;23.490;2022-12-18T07:25:07;90852.81;;;12.63;68.96
10366;BME280;5229;41.820;23.490;2022-12-18T07:27:34;90845.50;;;12.65;68.19
10366;BME280;5229;41.820;23.490;2022-12-18T07:30:01;90850.38;;;12.66;68.19
10366;BME280;5229;41.820;23.490;2022-12-18T07:32:28;90849.63;;;12.66;68.48
10366;BME280;5229;41.820;23.490;2022-12-18T07:34:56;90855.78;;;12.70;68.45
10366;BME280;5229;41.820;23.490;2022-12-18T07:37:23;90853.97;;;12.70;68.41
10366;BME280;5229;41.820;23.490;2022-12-18T07:39:50;90859.75;;;12.67;68.52
10366;BME280;5229;41.820;23.490;2022-12-18T07:42:18;90858.03;;;12.63;68.71
10366;BME280;5229;41.820;23.490;2022-12-18T07:44:57;90863.81;;;12.60;68.67
10366;BME280;5229;41.820;23.490;2022-12-18T07:47:24;90866.53;;;12.55;68.36
10366;BME280;5229;41.820;23.490;2022-12-18T07:49:51;90867.56;;;12.54;68.01
10366;BME280;5229;41.820;23.490;2022-12-18T07:52:18;90876.94;;;12.55;67.87
10366;BME280;5229;41.820;23.490;2022-12-18T07:54:45;90877.97;;;12.54;68.81
10366;BME280;5229;41.820;23.490;2022-12-18T07:57:14;90877.69;;;12.55;68.54
10366;BME280;5229;41.820;23.490;2022-12-18T07:59:42;90881.84;;;12.56;68.53
10366;BME280;5229;41.820;23.490;2022-12-18T08:02:09;90894.84;;;12.56;68.07
10366;BME280;5229;41.820;23.490;2022-12-18T08:04:36;90896.97;;;12.54;68.23
10366;BME280;5229;41.820;23.490;2022-12-18T08:07:02;90897.25;;;12.53;67.62
10366;BME280;5229;41.820;23.490;2022-12-18T08:09:29;90903.34;;;12.48;67.97
10366;BME280;5229;41.820;23.490;2022-12-18T08:11:56;90897.97;;;12.45;68.22
10366;BME280;5229;41.820;23.490;2022-12-18T08:14:23;90905.19;;;12.48;68.38
10366;BME280;5229;41.820;23.490;2022-12-18T08:16:51;90902.88;;;12.46;68.23
10366;BME280;5229;41.820;23.490;2022-12-18T08:19:18;90904.31;;;12.39;68.17
10366;BME280;5229;41.820;23.490;2022-12-18T08:21:44;90905.47;;;12.33;68.72
10366;BME280;5229;41.820;23.490;2022-12-18T08:24:11;90913.97;;;12.25;68.80
10366;BME280;5229;41.820;23.490;2022-12-18T08:26:38;90912.72;;;12.22;68.65
10366;BME280;5229;41.820;23.490;2022-12-18T08:29:05;90907.22;;;12.24;68.24
10366;BME280;5229;41.820;23.490;2022-12-18T08:31:32;90905.09;;;12.26;68.74
10366;BME280;5229;41.820;23.490;2022-12-18T08:34:01;90914.16;;;12.28;68.75
10366;BME280;5229;41.820;23.490;2022-12-18T08:36:27;90915.50;;;12.26;67.79
10366;BME280;5229;41.820;23.490;2022-12-18T08:38:54;90909.72;;;12.29;68.06
10366;BME280;5229;41.820;23.490;2022-12-18T08:41:21;90909.63;;;12.34;67.98
10366;BME280;5229;41.820;23.490;2022-12-18T08:43:48;90906.16;;;12.38;68.41
10366;BME280;5229;41.820;23.490;2022-12-18T08:46:35;90909.72;;;12.42;67.57
10366;BME280;5229;41.820;23.490;2022-12-18T08:49:04;90914.50;;;12.49;67.57
10366;BME280;5229;41.820;23.490;2022-12-18T08:51:31;90911.34;;;12.52;67.96
10366;BME280;5229;41.820;23.490;2022-12-18T08:53:58;90908.63;;;12.57;67.57
10366;BME280;5229;41.820;23.490;2022-12-18T08:56:25;90917.09;;;12.62;68.06
10366;BME280;5229;41.820;23.490;2022-12-18T08:58:52;90919.09;;;12.65;67.38
10366;BME280;5229;41.820;23.490;2022-12-18T09:01:20;90917.00;;;12.67;67.99
10366;BME280;5229;41.820;23.490;2022-12-18T09:03:47;90915.91;;;12.68;67.18
10366;BME280;5229;41.820;23.490;2022-12-18T09:06:16;90916.41;;;12.70;67.92
10366;BME280;5229;41.820;23.490;2022-12-18T09:08:43;90907.34;;;12.68;67.52
10366;BME280;5229;41.820;23.490;2022-12-18T09:11:13;90910.84;;;12.63;67.79
10366;BME280;5229;41.820;23.490;2022-12-18T09:13:40;90912.16;;;12.61;67.42
10366;BME280;5229;41.820;23.490;2022-12-18T09:16:07;90921.16;;;12.55;67.16
10366;BME280;5229;41.820;23.490;2022-12-18T09:18:33;90908.53;;;12.48;67.84
10366;BME280;5229;41.820;23.490;2022-12-18T09:21:07;90924.25;;;12.43;67.42
10366;BME280;5229;41.820;23.490;2022-12-18T09:23:35;90916.25;;;12.40;68.00
10366;BME280;5229;41.820;23.490;2022-12-18T09:26:02;90915.78;;;12.38;68.49
10366;BME280;5229;41.820;23.490;2022-12-18T09:28:29;90915.97;;;12.41;68.46
10366;BME280;5229;41.820;23.490;2022-12-18T09:30:56;90920.00;;;12.47;67.93
10366;BME280;5229;41.820;23.490;2022-12-18T09:33:23;90902.75;;;12.51;67.37
10366;BME280;5229;41.820;23.490;2022-12-18T09:35:49;90905.34;;;12.51;67.99
10366;BME280;5229;41.820;23.490;2022-12-18T09:38:18;90910.25;;;12.53;67.39
10366;BME280;5229;41.820;23.490;2022-12-18T09:40:48;90912.78;;;12.58;67.28
10366;BME280;5229;41.820;23.490;2022-12-18T09:43:18;90915.25;;;12.63;67.54
10366;BME280;5229;41.820;23.490;2022-12-18T09:45:48;90919.31;;;12.69;67.46
10366;BME280;5229;41.820;23.490;2022-12-18T09:48:21;90917.66;;;12.73;66.68
10366;BME280;5229;41.820;23.490;2022-12-18T09:50:50;90919.19;;;12.74;67.01
10366;BME280;5229;41.820;23.490;2022-12-18T09:53:21;90916.56;;;12.74;66.30
10366;BME280;5229;41.820;23.490;2022-12-18T09:55:54;90916.56;;;12.74;66.95
10366;BME280;5229;41.820;23.490;2022-12-18T09:58:26;90914.47;;;12.76;67.04
10366;BME280;5229;41.820;23.490;2022-12-18T10:00:57;90916.38;;;12.84;66.58
10366;BME280;5229;41.820;23.490;2022-12-18T10:03:23;90904.16;;;12.93;66.83
10366;BME280;5229;41.820;23.490;2022-12-18T10:06:04;90900.03;;;13.05;66.57
10366;BME280;5229;41.820;23.490;2022-12-18T10:08:37;90907.44;;;13.12;66.33
10366;BME280;5229;41.820;23.490;2022-12-18T10:11:24;90908.97;;;13.13;65.92
10366;BME280;5229;41.820;23.490;2022-12-18T10:13:57;90907.66;;;13.24;66.13
10366;BME280;5229;41.820;23.490;2022-12-18T10:16:34;90901.75;;;13.32;66.79
10366;BME280;5229;41.820;23.490;2022-12-18T10:19:16;90897.53;;;13.44;65.89
10366;BME280;5229;41.820;23.490;2022-12-18T10:21:50;90903.47;;;13.67;65.72
10366;BME280;5229;41.820;23.490;2022-12-18T10:24:25;90891.75;;;13.86;65.26
10366;BME280;5229;41.820;23.490;2022-12-18T10:26:59;90889.09;;;14.08;64.82
10366;BME280;5229;41.820;23.490;2022-12-18T10:29:34;90887.19;;;14.31;65.01
10366;BME280;5229;41.820;23.490;2022-12-18T10:32:00;90894.28;;;14.47;63.64
10366;BME280;5229;41.820;23.490;2022-12-18T10:34:27;90898.44;;;14.57;63.45
10366;BME280;5229;41.820;23.490;2022-12-18T10:36:54;90888.63;;;14.62;63.43
10366;BME280;5229;41.820;23.490;2022-12-18T10:39:23;90897.84;;;14.68;63.30
10366;BME280;5229;41.820;23.490;2022-12-18T10:41:51;90889.84;;;14.73;62.98
10366;BME280;5229;41.820;23.490;2022-12-18T10:44:21;90892.34;;;14.79;63.04
10366;BME280;5229;41.820;23.490;2022-12-18T10:46:49;90893.09;;;14.88;62.99
10366;BME280;5229;41.820;23.490;2022-12-18T10:49:28;90893.09;;;14.88;62.99
10366;BME280;5229;41.820;23.490;2022-12-18T10:52:07;90899.72;;;14.94;62.21
10366;BME280;5229;41.820;23.490;2022-12-18T10:54:46;90897.41;;;14.92;62.38
10366;BME280;5229;41.820;23.490;2022-12-18T10:57:16;90889.09;;;14.90;62.14
10366;BME280;5229;41.820;23.490;2022-12-18T10:59:52;90893.41;;;14.86;62.39
10366;BME280;5229;41.820;23.490;2022-12-18T11:02:27;90890.66;;;14.91;62.56
10366;BME280;5229;41.820;23.490;2022-12-18T11:04:55;90896.19;;;14.98;62.55
10366;BME280;5229;41.820;23.490;2022-12-18T11:07:22;90888.50;;;15.02;62.05
10366;BME280;5229;41.820;23.490;2022-12-18T11:10:00;90888.66;;;15.05;62.29
10366;BME280;5229;41.820;23.490;2022-12-18T11:12:28;90883.28;;;15.10;61.84
10366;BME280;5229;41.820;23.490;2022-12-18T11:14:57;90876.97;;;15.11;61.60
10366;BME280;5229;41.820;23.490;2022-12-18T11:17:29;90882.66;;;15.13;61.75
10366;BME280;5229;41.820;23.490;2022-12-18T11:19:57;90886.50;;;15.16;61.38
10366;BME280;5229;41.820;23.490;2022-12-18T11:22:26;90884.97;;;15.15;61.06
10366;BME280;5229;41.820;23.490;2022-12-18T11:24:56;90874.34;;;15.11;60.87
10366;BME280;5229;41.820;23.490;2022-12-18T11:27:24;90873.44;;;15.07;61.19
10366;BME280;5229;41.820;23.490;2022-12-18T11:29:52;90872.50;;;15.03;60.95
10366;BME280;5229;41.820;23.490;2022-12-18T11:32:33;90872.22;;;14.96;61.11
10366;BME280;5229;41.820;23.490;2022-12-18T11:35:12;90871.44;;;14.96;61.16
10366;BME280;5229;41.820;23.490;2022-12-18T11:37:41;90871.00;;;14.94;60.86
10366;BME280;5229;41.820;23.490;2022-12-18T11:40:14;90872.38;;;14.83;60.66
10366;BME280;5229;41.820;23.490;2022-12-18T11:42:46;90869.88;;;14.69;60.91
10366;BME280;5229;41.820;23.490;2022-12-18T11:45:26;90864.78;;;14.47;61.09
10366;BME280;5229;41.820;23.490;2022-12-18T11:47:58;90870.31;;;14.37;60.88
10366;BME280;5229;41.820;23.490;2022-12-18T11:50:32;90874.75;;;14.28;61.28
10366;BME280;5229;41.820;23.490;2022-12-18T11:53:00;90873.34;;;14.22;61.20
10366;BME280;5229;41.820;23.490;2022-12-18T11:55:33;90872.25;;;14.23;60.87
10366;BME280;5229;41.820;23.490;2022-12-18T11:58:09;90885.13;;;14.19;60.62
10366;BME280;5229;41.820;23.490;2022-12-18T12:00:43;90878.50;;;14.13;60.63
10366;BME280;5229;41.820;23.490;2022-12-18T12:03:27;90883.69;;;14.05;60.61
10366;BME280;5229;41.820;23.490;2022-12-18T12:06:10;90886.78;;;14.07;60.58
10366;BME280;5229;41.820;23.490;2022-12-18T12:08:54;90894.72;;;14.02;60.54
10366;BME280;5229;41.820;23.490;2022-12-18T12:11:28;90891.50;;;14.05;60.27
10366;BME280;5229;41.820;23.490;2022-12-18T12:14:12;90885.97;;;13.98;60.11
10366;BME280;5229;41.820;23.490;2022-12-18T12:16:47;90887.66;;;13.94;59.94
10366;BME280;5229;41.820;23.490;2022-12-18T12:19:32;90891.16;;;13.89;59.80
10366;BME280;5229;41.820;23.490;2022-12-18T12:22:10;90883.16;;;13.86;59.81
10366;BME280;5229;41.820;23.490;2022-12-18T12:24:53;90894.50;;;13.81;59.77
10366;BME280;5229;41.820;23.490;2022-12-18T12:27:29;90877.13;;;13.77;59.74
10366;BME280;5229;41.820;23.490;2022-12-18T12:30:04;90884.97;;;13.77;59.87
10366;BME280;5229;41.820;23.490;2022-12-18T12:32:43;90883.72;;;13.74;60.06
10366;BME280;5229;41.820;23.490;2022-12-18T12:35:27;90882.53;;;13.80;59.97
10366;BME280;5229;41.820;23.490;2022-12-18T12:38:05;90887.16;;;13.83;60.18
10366;BME280;5229;41.820;23.490;2022-12-18T12:40:37;90884.88;;;13.90;60.15
10366;BME280;5229;41.820;23.490;2022-12-18T12:43:19;90879.38;;;13.92;60.05
10366;BME280;5229;41.820;23.490;2022-12-18T12:45:50;90879.38;;;13.92;60.36
10366;BME280;5229;41.820;23.490;2022-12-18T12:48:27;90876.75;;;13.92;59.96
10366;BME280;5229;41.820;23.490;2022-12-18T12:51:00;90878.00;;;13.94;59.87
10366;BME280;5229;41.820;23.490;2022-12-18T12:53:32;90875.38;;;13.94;59.75
10366;BME280;5229;41.820;23.490;2022-12-18T12:56:01;90885.19;;;13.89;59.74
10366;BME280;5229;41.820;23.490;2022-12-18T12:58:35;90882.69;;;13.84;59.60
10366;BME280;5229;41.820;23.490;2022-12-18T13:01:16;90885.44;;;13.79;59.56
10366;BME280;5229;41.820;23.490;2022-12-18T13:03:52;90887.56;;;13.77;59.63
10366;BME280;5229;41.820;23.490;2022-12-18T13:06:32;90899.50;;;13.69;60.00
10366;BME280;5229;41.820;23.490;2022-12-18T13:09:00;90907.44;;;13.64;59.75
10366;BME280;5229;41.820;23.490;2022-12-18T13:11:35;90906.78;;;13.59;59.46
10366;BME280;5229;41.820;23.490;2022-12-18T13:14:22;90904.72;;;13.47;59.51
10366;BME280;5229;41.820;23.490;2022-12-18T13:16:50;90913.22;;;13.31;59.38